createdAt,value
2024-01-22T00:01:00.754Z,98942.91
2024-01-22T00:04:02.364Z,98940.84
2024-01-22T00:07:04.110Z,98934.97
2024-01-22T00:10:06.116Z,98931.38
2024-01-22T00:13:07.693Z,98926.09
2024-01-22T00:16:10.825Z,98928.44
2024-01-22T00:19:12.770Z,98904.63
2024-01-22T00:22:14.391Z,98892.25
2024-01-22T00:25:16.179Z,98869.38
2024-01-22T00:28:18.278Z,98891.38
2024-01-22T00:31:21.204Z,98891.06
2024-01-22T00:34:22.946Z,98858.19
2024-01-22T00:37:24.593Z,98828.38
2024-01-22T00:40:26.162Z,98804.41
2024-01-22T00:43:27.661Z,98813.72
2024-01-22T00:46:32.123Z,98822.50
2024-01-22T00:49:35.149Z,98814.16
2024-01-22T00:52:36.726Z,98842.16
2024-01-22T00:55:39.117Z,98826.13
2024-01-22T00:58:41.118Z,98821.53
2024-01-22T01:01:43.995Z,98812.78
2024-01-22T01:04:46.146Z,98816.13
2024-01-22T01:07:48.081Z,98803.66
2024-01-22T01:10:49.762Z,98766.72
2024-01-22T01:13:52.024Z,98768.91
2024-01-22T01:16:55.147Z,98747.72
2024-01-22T01:19:56.651Z,98705.50
2024-01-22T01:22:58.228Z,98720.13
2024-01-22T01:26:00.985Z,98703.00
2024-01-22T01:29:02.673Z,98699.38
2024-01-22T01:32:06.470Z,98709.56
2024-01-22T01:35:09.409Z,98703.31
2024-01-22T01:38:11.560Z,98688.53
2024-01-22T01:41:12.976Z,98676.06
2024-01-22T01:44:14.505Z,98673.94
2024-01-22T01:47:18.799Z,98649.34
2024-01-22T01:50:20.673Z,98652.75
2024-01-22T01:53:22.423Z,98629.66
2024-01-22T01:56:24.092Z,98612.25
2024-01-22T01:59:26.567Z,98614.44
2024-01-22T02:02:29.979Z,98615.13
2024-01-22T02:05:32.001Z,98601.56
2024-01-22T02:08:33.615Z,98593.16
2024-01-22T02:11:35.242Z,98589.88
2024-01-22T02:14:36.958Z,98567.19
2024-01-22T02:17:41.880Z,98549.06
2024-01-22T02:20:43.852Z,98557.88
2024-01-22T02:23:46.804Z,98561.72
2024-01-22T02:26:48.443Z,98557.75
2024-01-22T02:29:50.115Z,98573.03
2024-01-22T02:32:51.791Z,98585.47
2024-01-22T02:35:53.518Z,98580.75
2024-01-22T02:38:56.434Z,98553.88
2024-01-22T02:41:58.107Z,98538.97
2024-01-22T02:45:00.279Z,98521.59
2024-01-22T02:48:01.853Z,98531.06
2024-01-22T02:51:08.568Z,98507.34
2024-01-22T02:54:11.639Z,98502.72
2024-01-22T02:57:13.247Z,98491.44
2024-01-22T03:00:15.278Z,98465.44
2024-01-22T03:03:16.892Z,98489.44
2024-01-22T03:06:18.592Z,98479.06
2024-01-22T03:09:22.111Z,98456.66
2024-01-22T03:12:23.679Z,98485.22
2024-01-22T03:15:25.277Z,98495.31
2024-01-22T03:18:26.934Z,98492.34
2024-01-22T03:21:28.606Z,98489.38
2024-01-22T03:24:33.005Z,98490.72
2024-01-22T03:27:34.821Z,98490.41
2024-01-22T03:30:36.477Z,98484.25
2024-01-22T03:33:38.093Z,98479.59
2024-01-22T03:36:39.677Z,98438.03
2024-01-22T03:39:42.652Z,98419.84
2024-01-22T03:42:44.232Z,98400.78
2024-01-22T03:45:46.915Z,98417.88
2024-01-22T03:48:48.969Z,98424.69
2024-01-22T03:51:50.593Z,98431.28
2024-01-22T03:54:53.634Z,98422.19
2024-01-22T03:57:55.534Z,98396.41
2024-01-22T04:00:58.351Z,98397.38
2024-01-22T04:03:59.949Z,98384.69
2024-01-22T04:07:01.726Z,98345.03
2024-01-22T04:10:06.441Z,98349.06
2024-01-22T04:13:07.967Z,98387.81
2024-01-22T04:16:13.276Z,98350.94
2024-01-22T04:19:15.092Z,98384.84
2024-01-22T04:22:17.813Z,98339.72
2024-01-22T04:25:20.832Z,98335.53
2024-01-22T04:28:22.378Z,98294.41
2024-01-22T04:31:23.941Z,98298.75
2024-01-22T04:34:25.747Z,98292.88
2024-01-22T04:37:28.697Z,98285.72
2024-01-22T04:40:31.676Z,98301.63
2024-01-22T04:43:33.294Z,98291.91
2024-01-22T04:46:36.562Z,98292.72
2024-01-22T04:49:41.312Z,98285.94
2024-01-22T04:52:42.882Z,98271.16
2024-01-22T04:55:46.068Z,98301.47
2024-01-22T04:58:47.609Z,98309.94
2024-01-22T05:05:22.016Z,98370.19
2024-01-22T05:08:23.864Z,98392.25
2024-01-22T05:11:26.841Z,98410.13
2024-01-22T05:14:28.401Z,98431.66
2024-01-22T05:17:32.535Z,98408.09
2024-01-22T05:20:34.156Z,98437.69
2024-01-22T05:23:35.845Z,98425.03
2024-01-22T05:26:40.219Z,98418.47
2024-01-22T05:29:42.582Z,98416.03
2024-01-22T05:32:45.595Z,98415.84
2024-01-22T05:35:50.910Z,98367.66
2024-01-22T05:38:52.593Z,98371.25
2024-01-22T05:41:57.096Z,98347.19
2024-01-22T05:45:00.936Z,98347.56
2024-01-22T05:48:02.828Z,98368.88
2024-01-22T05:51:05.119Z,98376.59
2024-01-22T05:54:06.665Z,98351.69
2024-01-22T05:57:09.947Z,98336.63
2024-01-22T06:00:13.087Z,98354.03
2024-01-22T06:03:14.790Z,98335.38
2024-01-22T06:06:16.955Z,98324.16
2024-01-22T06:12:49.353Z,98302.66
2024-01-22T06:15:51.022Z,98319.38
2024-01-22T06:18:52.703Z,98310.38
2024-01-22T06:21:54.416Z,98301.72
2024-01-22T06:24:56.376Z,98315.88
2024-01-22T06:27:59.275Z,98300.00
2024-01-22T06:31:00.918Z,98309.81
2024-01-22T06:34:02.750Z,98301.34
2024-01-22T06:37:04.467Z,98328.66
2024-01-22T06:44:10.079Z,98320.19
2024-01-22T06:47:11.709Z,98311.34
2024-01-22T06:50:13.523Z,98311.16
2024-01-22T06:53:15.630Z,98321.22
2024-01-22T06:56:18.667Z,98302.75
2024-01-22T06:59:21.562Z,98298.59
2024-01-22T07:02:23.242Z,98334.03
2024-01-22T07:08:54.351Z,98304.44
2024-01-22T07:15:27.176Z,98301.03
2024-01-22T07:18:30.366Z,98292.44
2024-01-22T07:22:04.545Z,98302.66
2024-01-22T07:25:06.674Z,98294.78
2024-01-22T07:28:08.325Z,98301.84
2024-01-22T07:31:11.587Z,98321.41
2024-01-22T07:34:45.953Z,98293.16
2024-01-22T07:37:48.231Z,98299.66
2024-01-22T07:41:22.392Z,98277.03
2024-01-22T07:44:24.294Z,98258.81
2024-01-22T07:47:27.087Z,98334.13
2024-01-22T07:50:28.818Z,98320.53
2024-01-22T07:53:30.367Z,98317.28
2024-01-22T07:56:31.961Z,98318.84
2024-01-22T07:59:33.806Z,98283.38
2024-01-22T08:02:36.889Z,98291.75
2024-01-22T08:09:39.768Z,98345.00
2024-01-22T08:12:41.480Z,98344.34
2024-01-22T08:15:43.049Z,98346.19
2024-01-22T08:18:46.260Z,98333.38
2024-01-22T08:25:49.734Z,98343.09
2024-01-22T08:28:51.284Z,98338.50
2024-01-22T08:31:52.856Z,98356.06
2024-01-22T08:39:33.353Z,98338.00
2024-01-22T08:46:36.974Z,98354.00
2024-01-22T08:49:38.599Z,98363.47
2024-01-22T08:52:43.885Z,98354.31
2024-01-22T08:59:15.341Z,98345.97
2024-01-22T09:02:16.940Z,98345.22
2024-01-22T09:05:50.619Z,98353.31
2024-01-22T09:09:25.819Z,98348.44
2024-01-22T09:12:27.504Z,98361.19
2024-01-22T09:16:01.672Z,98365.84
2024-01-22T09:19:35.690Z,98360.81
2024-01-22T09:26:11.504Z,98345.47
2024-01-22T09:29:13.942Z,98345.94
2024-01-22T09:32:15.556Z,98336.09
2024-01-22T09:38:48.057Z,98306.69
2024-01-22T09:46:26.009Z,98299.97
2024-01-22T09:49:27.706Z,98290.88
2024-01-22T10:00:06.521Z,98300.97
2024-01-22T10:07:43.028Z,98296.19
2024-01-22T10:14:48.191Z,98282.25
2024-01-22T10:18:23.008Z,98276.78
2024-01-22T10:21:24.765Z,98278.84
2024-01-22T10:25:02.037Z,98259.78
2024-01-22T10:28:14.062Z,98256.00
2024-01-22T10:35:25.879Z,98256.13
2024-01-22T10:38:27.579Z,98253.41
2024-01-22T10:44:58.637Z,98286.50
2024-01-22T10:48:06.529Z,98285.41
2024-01-22T10:51:16.022Z,98297.06
2024-01-22T10:54:29.189Z,98290.03
2024-01-22T10:57:36.173Z,98298.94
2024-01-22T11:04:45.597Z,98309.88
2024-01-22T11:08:21.052Z,98315.16
2024-01-22T11:11:25.973Z,98292.06
2024-01-22T11:15:00.089Z,98292.50
2024-01-22T11:18:02.032Z,98297.25
2024-01-22T11:21:18.175Z,98274.19
2024-01-22T11:24:21.308Z,98253.91
2024-01-22T11:27:37.538Z,98255.41
2024-01-22T11:34:11.044Z,98230.31
2024-01-22T11:37:12.846Z,98228.69
2024-01-22T11:40:47.956Z,98228.13
2024-01-22T11:44:25.752Z,98209.31
2024-01-22T11:50:58.155Z,98173.16
2024-01-22T11:54:31.815Z,98170.69
2024-01-22T11:57:34.970Z,98161.41
2024-01-22T12:00:38.692Z,98181.78
2024-01-22T12:03:40.813Z,98181.16
2024-01-22T12:07:15.167Z,98201.28
2024-01-22T12:10:21.956Z,98206.41
2024-01-22T12:13:57.861Z,98213.38
2024-01-22T12:17:02.550Z,98222.03
2024-01-22T12:24:12.727Z,98218.88
2024-01-22T12:27:20.735Z,98255.88
2024-01-22T12:30:22.501Z,98315.94
2024-01-22T12:34:11.131Z,98332.59
2024-01-22T12:37:45.151Z,98351.28
2024-01-22T12:40:57.896Z,98370.44
2024-01-22T12:43:59.651Z,98365.59
2024-01-22T12:47:01.267Z,98375.94
2024-01-22T12:50:04.771Z,98358.78
2024-01-22T12:53:06.835Z,98365.09
2024-01-22T12:56:13.720Z,98342.91
2024-01-22T12:59:48.529Z,98350.56
2024-01-22T13:02:50.348Z,98342.91
2024-01-22T13:05:53.583Z,98352.47
2024-01-22T13:08:55.935Z,98352.66
2024-01-22T13:11:57.596Z,98343.47
2024-01-22T13:18:28.308Z,98317.88
2024-01-22T13:21:31.440Z,98286.66
2024-01-22T13:28:36.575Z,98300.38
2024-01-22T13:31:38.229Z,98301.97
2024-01-22T13:34:39.905Z,98310.78
2024-01-22T13:37:42.854Z,98318.69
2024-01-22T13:41:17.232Z,98335.22
2024-01-22T13:44:18.654Z,98342.50
2024-01-22T13:47:25.485Z,98343.94
2024-01-22T13:50:43.045Z,98345.16
2024-01-22T13:53:46.145Z,98334.78
2024-01-22T13:57:21.096Z,98343.44
2024-01-22T14:00:22.845Z,98353.41
2024-01-22T14:10:56.634Z,98379.28
2024-01-22T14:14:01.892Z,98369.84
2024-01-22T14:17:35.827Z,98370.34
2024-01-22T14:20:38.035Z,98353.69
2024-01-22T14:23:41.769Z,98344.06
2024-01-22T14:26:46.222Z,98353.16
2024-01-22T14:29:48.415Z,98363.81
2024-01-22T14:32:50.756Z,98371.94
2024-01-22T14:35:53.271Z,98377.09
2024-01-22T14:39:27.462Z,98371.06
2024-01-22T14:42:30.276Z,98381.66
2024-01-22T14:45:31.930Z,98392.25
2024-01-22T14:48:34.372Z,98387.19
2024-01-22T14:51:36.347Z,98395.63
2024-01-22T14:54:37.916Z,98402.97
2024-01-22T14:57:41.115Z,98396.44
2024-01-22T15:01:15.206Z,98399.47
2024-01-22T15:04:18.133Z,98413.63
2024-01-22T15:07:23.244Z,98403.91
2024-01-22T15:10:24.902Z,98413.19
2024-01-22T15:13:27.977Z,98419.03
2024-01-22T15:17:02.108Z,98410.94
2024-01-22T15:20:03.962Z,98404.38
2024-01-22T15:23:05.624Z,98410.38
2024-01-22T15:26:07.501Z,98423.91
2024-01-22T15:29:10.606Z,98410.84
2024-01-22T15:32:12.181Z,98403.50
2024-01-22T15:35:14.214Z,98386.88
2024-01-22T15:38:49.100Z,98383.94
2024-01-22T15:41:51.141Z,98373.91
2024-01-22T15:44:54.167Z,98379.44
2024-01-22T15:47:56.348Z,98386.22
2024-01-22T15:50:58.019Z,98384.75
2024-01-22T15:54:02.758Z,98378.03
2024-01-22T15:57:04.770Z,98371.00
2024-01-22T16:00:08.532Z,98369.97
2024-01-22T16:07:13.550Z,98368.75
2024-01-22T16:10:16.244Z,98370.56
2024-01-22T16:13:19.863Z,98383.03
2024-01-22T16:16:23.467Z,98378.97
2024-01-22T16:19:25.857Z,98380.03
2024-01-22T16:22:27.560Z,98406.66
2024-01-22T16:25:29.346Z,98400.44
2024-01-22T16:28:31.010Z,98422.13
2024-01-22T16:31:37.330Z,98454.31
2024-01-22T16:34:40.370Z,98452.38
2024-01-22T16:37:42.471Z,98452.53
2024-01-22T16:40:44.279Z,98455.56
2024-01-22T16:43:45.881Z,98456.19
2024-01-22T16:46:48.864Z,98463.81
2024-01-22T16:49:50.531Z,98455.25
2024-01-22T16:52:52.186Z,98445.50
2024-01-22T16:55:53.781Z,98436.97
2024-01-22T16:59:31.895Z,98449.66
2024-01-22T17:02:34.792Z,98447.53
2024-01-22T17:05:37.981Z,98454.69
2024-01-22T17:08:39.943Z,98458.03
2024-01-22T17:11:41.769Z,98467.41
2024-01-22T17:14:43.560Z,98456.59
2024-01-22T17:17:48.544Z,98460.44
2024-01-22T17:20:51.275Z,98447.97
2024-01-22T17:23:52.883Z,98450.50
2024-01-22T17:26:54.905Z,98452.13
2024-01-22T17:29:57.271Z,98441.88
2024-01-22T17:36:29.729Z,98450.53
2024-01-22T17:39:31.399Z,98460.66
2024-01-22T17:42:33.026Z,98467.00
2024-01-22T17:45:35.060Z,98479.13
2024-01-22T17:49:10.807Z,98485.88
2024-01-22T17:52:12.370Z,98490.00
2024-01-22T17:55:14.170Z,98489.19
2024-01-22T17:58:15.794Z,98494.31
2024-01-22T18:01:50.030Z,98501.81
2024-01-22T18:04:53.009Z,98501.94
2024-01-22T18:07:54.602Z,98497.13
2024-01-22T18:10:56.220Z,98501.59
2024-01-22T18:13:57.777Z,98515.06
2024-01-22T18:16:59.432Z,98519.09
2024-01-22T18:20:02.346Z,98518.28
2024-01-22T18:23:04.168Z,98511.84
2024-01-22T18:26:05.982Z,98522.34
2024-01-22T18:29:40.293Z,98548.25
2024-01-22T18:32:41.924Z,98563.34
2024-01-22T18:35:45.171Z,98549.41
2024-01-22T18:38:46.769Z,98541.47
2024-01-22T18:41:48.473Z,98549.47
2024-01-22T18:44:50.191Z,98567.09
2024-01-22T18:47:51.941Z,98572.22
2024-01-22T18:50:55.027Z,98591.84
2024-01-22T18:53:56.684Z,98603.94
2024-01-22T18:56:58.339Z,98615.75
2024-01-22T19:00:00.140Z,98620.72
2024-01-22T19:03:34.246Z,98627.34
2024-01-22T19:10:09.933Z,98662.72
2024-01-22T19:13:44.612Z,98641.78
2024-01-22T19:20:15.403Z,98653.25
2024-01-22T19:23:18.205Z,98644.63
2024-01-22T19:26:19.908Z,98639.47
2024-01-22T19:29:21.530Z,98654.72
2024-01-22T19:32:55.347Z,98630.44
2024-01-22T19:39:27.863Z,98628.78
2024-01-22T19:42:30.031Z,98633.06
2024-01-22T19:45:31.984Z,98619.75
2024-01-22T19:48:33.643Z,98628.25
2024-01-22T19:51:35.338Z,98629.75
2024-01-22T19:54:38.506Z,98623.59
2024-01-22T19:57:40.349Z,98627.56
2024-01-22T20:00:42.174Z,98620.25
2024-01-22T20:03:45.173Z,98621.09
2024-01-22T20:06:47.144Z,98608.78
2024-01-22T20:13:53.040Z,98613.81
2024-01-22T20:20:23.846Z,98632.59
2024-01-22T20:23:25.460Z,98641.56
2024-01-22T20:26:28.618Z,98651.22
2024-01-22T20:29:33.281Z,98652.41
2024-01-22T20:32:35.201Z,98684.97
2024-01-22T20:35:36.645Z,98715.06
2024-01-22T20:39:10.314Z,98743.00
2024-01-22T20:42:46.807Z,98741.66
2024-01-22T20:45:48.811Z,98767.25
2024-01-22T20:48:52.125Z,98772.03
2024-01-22T20:51:53.798Z,98795.28
2024-01-22T20:54:55.458Z,98798.63
2024-01-22T20:57:58.623Z,98805.13
2024-01-22T21:01:00.371Z,98794.16
2024-01-22T21:04:02.159Z,98798.66
2024-01-22T21:07:07.523Z,98785.84
2024-01-22T21:10:09.872Z,98787.00
2024-01-22T21:13:13.026Z,98786.50
2024-01-22T21:16:14.594Z,98782.66
2024-01-22T21:19:50.466Z,98791.13
2024-01-22T21:22:52.106Z,98795.28
2024-01-22T21:26:26.443Z,98805.72
2024-01-22T21:29:29.351Z,98784.91
2024-01-22T21:32:31.042Z,98796.03
2024-01-22T21:35:32.648Z,98795.50
2024-01-22T21:38:36.090Z,98812.16
2024-01-22T21:41:37.668Z,98807.38
2024-01-22T21:45:12.794Z,98810.84
2024-01-22T21:48:14.649Z,98817.53
2024-01-22T21:51:48.179Z,98834.19
2024-01-22T21:54:49.898Z,98817.06
2024-01-22T21:57:52.575Z,98814.06
2024-01-22T22:01:30.482Z,98797.28
2024-01-22T22:04:32.477Z,98797.47
2024-01-22T22:07:34.552Z,98822.03
2024-01-22T22:10:36.455Z,98801.28
2024-01-22T22:14:10.002Z,98805.25
2024-01-22T22:17:13.324Z,98807.41
2024-01-22T22:20:15.914Z,98815.38
2024-01-22T22:23:49.202Z,98828.88
2024-01-22T22:26:50.851Z,98841.84
2024-01-22T22:29:52.560Z,98845.66
2024-01-22T22:32:55.722Z,98834.69
2024-01-22T22:40:01.759Z,98849.13
2024-01-22T22:43:03.823Z,98845.97
2024-01-22T22:46:05.329Z,98854.25
2024-01-22T22:49:08.302Z,98872.41
2024-01-22T22:52:10.048Z,98862.94
2024-01-22T22:55:11.636Z,98875.06
2024-01-22T22:58:13.284Z,98879.94
2024-01-22T23:01:47.301Z,98865.31
2024-01-22T23:04:50.520Z,98861.81
2024-01-22T23:07:52.170Z,98879.72
2024-01-22T23:14:23.106Z,98895.28
2024-01-22T23:17:24.668Z,98900.22
2024-01-22T23:20:27.786Z,98920.19
2024-01-22T23:23:30.986Z,98917.75
2024-01-22T23:27:04.613Z,98926.41
2024-01-22T23:30:07.861Z,98930.91
2024-01-22T23:33:09.850Z,98899.81
2024-01-22T23:36:12.924Z,98907.81
2024-01-22T23:42:45.642Z,98927.72
2024-01-22T23:45:47.518Z,98939.19
2024-01-22T23:48:49.250Z,98948.56
2024-01-22T23:51:52.495Z,98932.84
2024-01-22T23:54:54.059Z,98941.50
2024-01-22T23:57:55.717Z,98938.41
